Austin, Texas
Traffic Map
Current Weather Conditions
Austin, Texas
Overcast
Overcast
10°
Feels Like: 10°
Wind Chill: 10° Ceiling: 1500
Heat Index: 10° Visibility: 10mi
Dew Point: Wind: 5mph
Humidity: 80% Direction: 350° (N)
Pressure: 30.2in Gusts: 0mph
Raw Report DataKATT 200551Z AUTO 35004KT 10SM OVC015 10/07 A3020 RMK AO2 SLP228 T01000067 10111 20094 401390089 50005
Traffic Incident Summary
Active as of:
Severity:
Category:
InformationThere was an issue retrieving the traffic information for this location. Please try a different location or try again shortly.
Advertisements
Track Severe Weather on mobile